sensor_id;sensor_type;location;lat;lon;timestamp;P1;durP1;ratioP1;P2;durP2;ratioP2
2656;SDS011;1338;48.176;11.792;2022-07-22T00:01:48;27.40;;;24.73;;
2656;SDS011;1338;48.176;11.792;2022-07-22T00:04:16;28.27;;;25.77;;
2656;SDS011;1338;48.176;11.792;2022-07-22T00:06:44;27.03;;;24.63;;
2656;SDS011;1338;48.176;11.792;2022-07-22T00:09:14;26.93;;;24.43;;
2656;SDS011;1338;48.176;11.792;2022-07-22T00:11:42;25.77;;;23.37;;
2656;SDS011;1338;48.176;11.792;2022-07-22T00:14:10;25.97;;;23.53;;
2656;SDS011;1338;48.176;11.792;2022-07-22T00:16:39;26.30;;;24.00;;
2656;SDS011;1338;48.176;11.792;2022-07-22T00:19:08;24.70;;;22.50;;
2656;SDS011;1338;48.176;11.792;2022-07-22T00:21:36;25.50;;;23.20;;
2656;SDS011;1338;48.176;11.792;2022-07-22T00:24:04;23.80;;;21.50;;
2656;SDS011;1338;48.176;11.792;2022-07-22T00:26:34;25.90;;;23.60;;
2656;SDS011;1338;48.176;11.792;2022-07-22T00:29:02;26.30;;;24.00;;
2656;SDS011;1338;48.176;11.792;2022-07-22T00:31:30;27.10;;;24.37;;
2656;SDS011;1338;48.176;11.792;2022-07-22T00:33:59;27.20;;;24.60;;
2656;SDS011;1338;48.176;11.792;2022-07-22T00:36:28;27.30;;;24.60;;
2656;SDS011;1338;48.176;11.792;2022-07-22T00:38:57;26.43;;;24.00;;
2656;SDS011;1338;48.176;11.792;2022-07-22T00:41:26;25.97;;;23.47;;
2656;SDS011;1338;48.176;11.792;2022-07-22T00:43:59;25.27;;;22.97;;
2656;SDS011;1338;48.176;11.792;2022-07-22T00:46:29;26.53;;;24.13;;
2656;SDS011;1338;48.176;11.792;2022-07-22T00:48:58;22.97;;;20.97;;
2656;SDS011;1338;48.176;11.792;2022-07-22T00:51:27;22.20;;;20.30;;
2656;SDS011;1338;48.176;11.792;2022-07-22T00:53:57;22.83;;;20.73;;
2656;SDS011;1338;48.176;11.792;2022-07-22T00:56:26;24.43;;;22.20;;
2656;SDS011;1338;48.176;11.792;2022-07-22T00:58:56;22.40;;;20.47;;
2656;SDS011;1338;48.176;11.792;2022-07-22T01:01:27;23.33;;;21.07;;
2656;SDS011;1338;48.176;11.792;2022-07-22T01:03:56;23.00;;;21.00;;
2656;SDS011;1338;48.176;11.792;2022-07-22T01:06:27;24.27;;;22.17;;
2656;SDS011;1338;48.176;11.792;2022-07-22T01:08:55;25.00;;;22.70;;
2656;SDS011;1338;48.176;11.792;2022-07-22T01:11:25;26.73;;;24.13;;
2656;SDS011;1338;48.176;11.792;2022-07-22T01:13:54;25.83;;;23.30;;
2656;SDS011;1338;48.176;11.792;2022-07-22T01:16:24;27.80;;;25.10;;
2656;SDS011;1338;48.176;11.792;2022-07-22T01:18:53;24.57;;;22.07;;
2656;SDS011;1338;48.176;11.792;2022-07-22T01:21:23;24.47;;;22.00;;
2656;SDS011;1338;48.176;11.792;2022-07-22T01:23:52;24.40;;;22.03;;
2656;SDS011;1338;48.176;11.792;2022-07-22T01:26:20;22.10;;;20.17;;
2656;SDS011;1338;48.176;11.792;2022-07-22T01:28:48;20.57;;;18.50;;
2656;SDS011;1338;48.176;11.792;2022-07-22T01:31:16;22.30;;;20.20;;
2656;SDS011;1338;48.176;11.792;2022-07-22T01:33:44;21.87;;;19.73;;
2656;SDS011;1338;48.176;11.792;2022-07-22T01:36:13;22.40;;;20.40;;
2656;SDS011;1338;48.176;11.792;2022-07-22T01:38:42;21.50;;;19.60;;
2656;SDS011;1338;48.176;11.792;2022-07-22T01:41:11;21.73;;;19.73;;
2656;SDS011;1338;48.176;11.792;2022-07-22T01:43:39;22.70;;;20.60;;
2656;SDS011;1338;48.176;11.792;2022-07-22T01:46:07;22.20;;;20.20;;
2656;SDS011;1338;48.176;11.792;2022-07-22T01:48:39;21.37;;;19.40;;
2656;SDS011;1338;48.176;11.792;2022-07-22T01:51:07;22.40;;;20.30;;
2656;SDS011;1338;48.176;11.792;2022-07-22T01:53:37;20.80;;;19.00;;
2656;SDS011;1338;48.176;11.792;2022-07-22T01:56:06;21.90;;;19.90;;
2656;SDS011;1338;48.176;11.792;2022-07-22T01:58:43;22.53;;;20.40;;
2656;SDS011;1338;48.176;11.792;2022-07-22T02:01:13;23.13;;;20.57;;
2656;SDS011;1338;48.176;11.792;2022-07-22T02:03:41;22.03;;;20.13;;
2656;SDS011;1338;48.176;11.792;2022-07-22T02:06:09;22.27;;;20.13;;
2656;SDS011;1338;48.176;11.792;2022-07-22T02:08:38;23.17;;;21.10;;
2656;SDS011;1338;48.176;11.792;2022-07-22T02:11:14;22.63;;;20.63;;
2656;SDS011;1338;48.176;11.792;2022-07-22T02:14:04;22.07;;;20.07;;
2656;SDS011;1338;48.176;11.792;2022-07-22T02:16:32;22.93;;;20.90;;
2656;SDS011;1338;48.176;11.792;2022-07-22T02:19:04;22.13;;;20.23;;
2656;SDS011;1338;48.176;11.792;2022-07-22T02:21:32;22.60;;;20.53;;
2656;SDS011;1338;48.176;11.792;2022-07-22T02:24:01;21.83;;;19.60;;
2656;SDS011;1338;48.176;11.792;2022-07-22T02:26:30;20.80;;;19.10;;
2656;SDS011;1338;48.176;11.792;2022-07-22T02:28:58;22.13;;;19.83;;
2656;SDS011;1338;48.176;11.792;2022-07-22T02:31:27;20.73;;;18.93;;
2656;SDS011;1338;48.176;11.792;2022-07-22T02:33:55;22.63;;;20.57;;
2656;SDS011;1338;48.176;11.792;2022-07-22T02:36:26;23.87;;;21.80;;
2656;SDS011;1338;48.176;11.792;2022-07-22T02:38:56;22.67;;;20.57;;
2656;SDS011;1338;48.176;11.792;2022-07-22T02:41:25;21.03;;;19.13;;
2656;SDS011;1338;48.176;11.792;2022-07-22T02:43:57;21.83;;;19.93;;
2656;SDS011;1338;48.176;11.792;2022-07-22T02:46:25;20.90;;;19.03;;
2656;SDS011;1338;48.176;11.792;2022-07-22T02:48:57;22.53;;;20.53;;
2656;SDS011;1338;48.176;11.792;2022-07-22T02:51:29;21.93;;;19.73;;
2656;SDS011;1338;48.176;11.792;2022-07-22T02:53:57;23.23;;;20.90;;
2656;SDS011;1338;48.176;11.792;2022-07-22T02:56:25;28.47;;;20.77;;
2656;SDS011;1338;48.176;11.792;2022-07-22T02:58:54;23.60;;;20.20;;
2656;SDS011;1338;48.176;11.792;2022-07-22T03:01:25;22.10;;;20.00;;
2656;SDS011;1338;48.176;11.792;2022-07-22T03:03:56;22.17;;;20.13;;
2656;SDS011;1338;48.176;11.792;2022-07-22T03:06:26;23.33;;;21.23;;
2656;SDS011;1338;48.176;11.792;2022-07-22T03:08:59;23.97;;;21.60;;
2656;SDS011;1338;48.176;11.792;2022-07-22T03:11:29;23.23;;;21.10;;
2656;SDS011;1338;48.176;11.792;2022-07-22T03:13:57;21.87;;;19.77;;
2656;SDS011;1338;48.176;11.792;2022-07-22T03:16:28;21.20;;;19.20;;
2656;SDS011;1338;48.176;11.792;2022-07-22T03:18:56;22.37;;;20.37;;
2656;SDS011;1338;48.176;11.792;2022-07-22T03:21:25;21.23;;;19.33;;
2656;SDS011;1338;48.176;11.792;2022-07-22T03:23:53;21.27;;;19.27;;
2656;SDS011;1338;48.176;11.792;2022-07-22T03:26:22;22.00;;;19.80;;
2656;SDS011;1338;48.176;11.792;2022-07-22T03:28:52;20.33;;;18.53;;
2656;SDS011;1338;48.176;11.792;2022-07-22T03:31:21;22.83;;;20.53;;
2656;SDS011;1338;48.176;11.792;2022-07-22T03:33:50;21.20;;;19.30;;
2656;SDS011;1338;48.176;11.792;2022-07-22T03:36:19;20.90;;;19.07;;
2656;SDS011;1338;48.176;11.792;2022-07-22T03:38:50;21.57;;;19.47;;
2656;SDS011;1338;48.176;11.792;2022-07-22T03:41:19;20.47;;;18.60;;
2656;SDS011;1338;48.176;11.792;2022-07-22T03:43:47;21.77;;;19.73;;
2656;SDS011;1338;48.176;11.792;2022-07-22T03:46:16;22.70;;;20.43;;
2656;SDS011;1338;48.176;11.792;2022-07-22T03:48:45;20.80;;;18.80;;
2656;SDS011;1338;48.176;11.792;2022-07-22T03:51:15;21.00;;;19.10;;
2656;SDS011;1338;48.176;11.792;2022-07-22T03:53:43;23.10;;;20.90;;
2656;SDS011;1338;48.176;11.792;2022-07-22T03:56:11;23.13;;;20.93;;
2656;SDS011;1338;48.176;11.792;2022-07-22T03:58:39;23.07;;;21.07;;
2656;SDS011;1338;48.176;11.792;2022-07-22T04:01:09;22.43;;;20.43;;
2656;SDS011;1338;48.176;11.792;2022-07-22T04:03:39;22.60;;;20.20;;
2656;SDS011;1338;48.176;11.792;2022-07-22T04:06:32;21.87;;;19.67;;
2656;SDS011;1338;48.176;11.792;2022-07-22T04:09:07;23.03;;;20.77;;
2656;SDS011;1338;48.176;11.792;2022-07-22T04:11:35;21.97;;;19.87;;
2656;SDS011;1338;48.176;11.792;2022-07-22T04:14:03;23.00;;;20.80;;
2656;SDS011;1338;48.176;11.792;2022-07-22T04:16:31;24.07;;;21.30;;
2656;SDS011;1338;48.176;11.792;2022-07-22T04:19:10;21.73;;;19.63;;
2656;SDS011;1338;48.176;11.792;2022-07-22T04:21:49;23.07;;;20.97;;
2656;SDS011;1338;48.176;11.792;2022-07-22T04:24:19;22.23;;;20.33;;
2656;SDS011;1338;48.176;11.792;2022-07-22T04:26:48;24.40;;;22.00;;
2656;SDS011;1338;48.176;11.792;2022-07-22T04:29:16;22.17;;;19.87;;
2656;SDS011;1338;48.176;11.792;2022-07-22T04:31:44;22.90;;;20.70;;
2656;SDS011;1338;48.176;11.792;2022-07-22T04:34:16;20.97;;;18.87;;
2656;SDS011;1338;48.176;11.792;2022-07-22T04:36:46;20.97;;;19.07;;
2656;SDS011;1338;48.176;11.792;2022-07-22T04:39:16;18.90;;;17.17;;
2656;SDS011;1338;48.176;11.792;2022-07-22T04:41:53;20.10;;;18.30;;
2656;SDS011;1338;48.176;11.792;2022-07-22T04:44:22;20.80;;;18.90;;
2656;SDS011;1338;48.176;11.792;2022-07-22T04:46:50;19.03;;;17.23;;
2656;SDS011;1338;48.176;11.792;2022-07-22T04:49:19;19.30;;;17.50;;
2656;SDS011;1338;48.176;11.792;2022-07-22T04:51:48;20.30;;;18.40;;
2656;SDS011;1338;48.176;11.792;2022-07-22T04:54:26;19.77;;;17.87;;
2656;SDS011;1338;48.176;11.792;2022-07-22T04:56:56;20.33;;;18.47;;
2656;SDS011;1338;48.176;11.792;2022-07-22T04:59:25;20.67;;;18.57;;
2656;SDS011;1338;48.176;11.792;2022-07-22T05:01:53;19.00;;;17.10;;
2656;SDS011;1338;48.176;11.792;2022-07-22T05:04:22;18.30;;;16.57;;
2656;SDS011;1338;48.176;11.792;2022-07-22T05:06:52;19.93;;;18.10;;
2656;SDS011;1338;48.176;11.792;2022-07-22T05:09:21;19.57;;;17.57;;
2656;SDS011;1338;48.176;11.792;2022-07-22T05:11:50;19.13;;;17.27;;
2656;SDS011;1338;48.176;11.792;2022-07-22T05:14:21;18.70;;;16.00;;
2656;SDS011;1338;48.176;11.792;2022-07-22T05:16:49;20.73;;;18.70;;
2656;SDS011;1338;48.176;11.792;2022-07-22T05:19:18;20.40;;;17.73;;
2656;SDS011;1338;48.176;11.792;2022-07-22T05:21:46;19.57;;;17.67;;
2656;SDS011;1338;48.176;11.792;2022-07-22T05:24:16;20.53;;;17.73;;
2656;SDS011;1338;48.176;11.792;2022-07-22T05:26:45;19.57;;;16.97;;
2656;SDS011;1338;48.176;11.792;2022-07-22T05:29:13;21.03;;;17.73;;
2656;SDS011;1338;48.176;11.792;2022-07-22T05:31:41;19.53;;;17.60;;
2656;SDS011;1338;48.176;11.792;2022-07-22T05:34:10;19.07;;;17.17;;
2656;SDS011;1338;48.176;11.792;2022-07-22T05:36:43;20.50;;;18.23;;
2656;SDS011;1338;48.176;11.792;2022-07-22T05:39:12;20.33;;;18.10;;
2656;SDS011;1338;48.176;11.792;2022-07-22T05:41:42;20.47;;;18.37;;
2656;SDS011;1338;48.176;11.792;2022-07-22T05:44:11;21.70;;;19.60;;
2656;SDS011;1338;48.176;11.792;2022-07-22T05:46:39;20.73;;;18.70;;
2656;SDS011;1338;48.176;11.792;2022-07-22T05:49:08;20.50;;;18.53;;
2656;SDS011;1338;48.176;11.792;2022-07-22T05:51:50;20.53;;;18.40;;
2656;SDS011;1338;48.176;11.792;2022-07-22T05:54:18;20.57;;;18.57;;
2656;SDS011;1338;48.176;11.792;2022-07-22T05:56:48;20.23;;;18.23;;
2656;SDS011;1338;48.176;11.792;2022-07-22T05:59:16;18.30;;;16.60;;
2656;SDS011;1338;48.176;11.792;2022-07-22T06:01:44;22.00;;;19.50;;
2656;SDS011;1338;48.176;11.792;2022-07-22T06:04:32;20.03;;;18.20;;
2656;SDS011;1338;48.176;11.792;2022-07-22T06:07:01;17.43;;;15.83;;
2656;SDS011;1338;48.176;11.792;2022-07-22T06:09:32;21.30;;;19.33;;
2656;SDS011;1338;48.176;11.792;2022-07-22T06:12:02;20.80;;;18.70;;
2656;SDS011;1338;48.176;11.792;2022-07-22T06:14:31;18.60;;;16.60;;
2656;SDS011;1338;48.176;11.792;2022-07-22T06:16:59;19.73;;;18.07;;
2656;SDS011;1338;48.176;11.792;2022-07-22T06:19:27;20.60;;;18.47;;
2656;SDS011;1338;48.176;11.792;2022-07-22T06:21:56;19.83;;;17.87;;
2656;SDS011;1338;48.176;11.792;2022-07-22T06:24:24;19.77;;;17.70;;
2656;SDS011;1338;48.176;11.792;2022-07-22T06:26:53;20.23;;;18.37;;
2656;SDS011;1338;48.176;11.792;2022-07-22T06:29:23;18.80;;;16.90;;
2656;SDS011;1338;48.176;11.792;2022-07-22T06:31:51;17.37;;;15.63;;
2656;SDS011;1338;48.176;11.792;2022-07-22T06:34:20;16.37;;;14.97;;
2656;SDS011;1338;48.176;11.792;2022-07-22T06:36:56;18.33;;;16.63;;
2656;SDS011;1338;48.176;11.792;2022-07-22T06:39:25;19.27;;;17.57;;
2656;SDS011;1338;48.176;11.792;2022-07-22T06:42:08;19.87;;;17.93;;
2656;SDS011;1338;48.176;11.792;2022-07-22T06:45:11;19.50;;;17.60;;
2656;SDS011;1338;48.176;11.792;2022-07-22T06:48:17;15.90;;;14.57;;
2656;SDS011;1338;48.176;11.792;2022-07-22T06:50:46;18.27;;;16.70;;
2656;SDS011;1338;48.176;11.792;2022-07-22T06:53:19;18.60;;;16.90;;
2656;SDS011;1338;48.176;11.792;2022-07-22T06:55:47;16.00;;;14.70;;
2656;SDS011;1338;48.176;11.792;2022-07-22T06:58:16;21.50;;;19.57;;
2656;SDS011;1338;48.176;11.792;2022-07-22T07:00:45;17.37;;;15.77;;
2656;SDS011;1338;48.176;11.792;2022-07-22T07:03:24;21.10;;;18.77;;
2656;SDS011;1338;48.176;11.792;2022-07-22T07:06:06;20.60;;;18.90;;
2656;SDS011;1338;48.176;11.792;2022-07-22T07:08:53;19.10;;;17.33;;
2656;SDS011;1338;48.176;11.792;2022-07-22T07:11:24;16.03;;;14.70;;
2656;SDS011;1338;48.176;11.792;2022-07-22T07:13:54;17.70;;;16.10;;
2656;SDS011;1338;48.176;11.792;2022-07-22T07:16:23;17.30;;;15.53;;
2656;SDS011;1338;48.176;11.792;2022-07-22T07:18:52;20.73;;;18.73;;
2656;SDS011;1338;48.176;11.792;2022-07-22T07:21:21;18.10;;;16.60;;
2656;SDS011;1338;48.176;11.792;2022-07-22T07:23:49;16.97;;;15.57;;
2656;SDS011;1338;48.176;11.792;2022-07-22T07:26:18;16.20;;;14.70;;
2656;SDS011;1338;48.176;11.792;2022-07-22T07:28:49;16.63;;;15.10;;
2656;SDS011;1338;48.176;11.792;2022-07-22T07:31:33;15.77;;;14.17;;
2656;SDS011;1338;48.176;11.792;2022-07-22T07:34:08;16.63;;;15.23;;
2656;SDS011;1338;48.176;11.792;2022-07-22T07:36:36;15.47;;;13.93;;
2656;SDS011;1338;48.176;11.792;2022-07-22T07:39:04;15.23;;;13.90;;
2656;SDS011;1338;48.176;11.792;2022-07-22T07:41:33;15.60;;;13.90;;
2656;SDS011;1338;48.176;11.792;2022-07-22T07:44:02;14.73;;;13.40;;
2656;SDS011;1338;48.176;11.792;2022-07-22T07:46:30;14.63;;;13.30;;
2656;SDS011;1338;48.176;11.792;2022-07-22T07:49:00;14.73;;;13.27;;
2656;SDS011;1338;48.176;11.792;2022-07-22T07:51:29;16.33;;;13.10;;
2656;SDS011;1338;48.176;11.792;2022-07-22T07:53:57;14.10;;;12.90;;
2656;SDS011;1338;48.176;11.792;2022-07-22T07:56:25;14.80;;;13.50;;
2656;SDS011;1338;48.176;11.792;2022-07-22T07:58:54;13.83;;;12.73;;
2656;SDS011;1338;48.176;11.792;2022-07-22T08:01:45;13.93;;;12.87;;
2656;SDS011;1338;48.176;11.792;2022-07-22T08:04:25;13.80;;;12.67;;
2656;SDS011;1338;48.176;11.792;2022-07-22T08:07:11;13.80;;;12.70;;
2656;SDS011;1338;48.176;11.792;2022-07-22T08:09:41;13.67;;;12.30;;
2656;SDS011;1338;48.176;11.792;2022-07-22T08:12:37;13.93;;;12.73;;
2656;SDS011;1338;48.176;11.792;2022-07-22T08:15:31;15.30;;;13.93;;
2656;SDS011;1338;48.176;11.792;2022-07-22T08:18:07;14.97;;;13.50;;
2656;SDS011;1338;48.176;11.792;2022-07-22T08:20:35;14.30;;;13.10;;
2656;SDS011;1338;48.176;11.792;2022-07-22T08:23:04;16.13;;;14.70;;
2656;SDS011;1338;48.176;11.792;2022-07-22T08:25:33;14.23;;;13.13;;
2656;SDS011;1338;48.176;11.792;2022-07-22T08:28:01;13.93;;;12.73;;
2656;SDS011;1338;48.176;11.792;2022-07-22T08:30:30;15.23;;;14.03;;
2656;SDS011;1338;48.176;11.792;2022-07-22T08:32:58;13.53;;;12.53;;
2656;SDS011;1338;48.176;11.792;2022-07-22T08:35:28;15.00;;;13.70;;
2656;SDS011;1338;48.176;11.792;2022-07-22T08:37:57;15.70;;;14.37;;
2656;SDS011;1338;48.176;11.792;2022-07-22T08:40:25;13.50;;;12.40;;
2656;SDS011;1338;48.176;11.792;2022-07-22T08:42:56;13.90;;;12.80;;
2656;SDS011;1338;48.176;11.792;2022-07-22T08:45:27;16.10;;;14.60;;
2656;SDS011;1338;48.176;11.792;2022-07-22T08:47:57;14.90;;;13.70;;
2656;SDS011;1338;48.176;11.792;2022-07-22T08:50:36;13.30;;;12.30;;
2656;SDS011;1338;48.176;11.792;2022-07-22T08:53:23;15.27;;;14.00;;
2656;SDS011;1338;48.176;11.792;2022-07-22T08:55:55;14.40;;;13.30;;
2656;SDS011;1338;48.176;11.792;2022-07-22T08:58:25;14.33;;;13.07;;
2656;SDS011;1338;48.176;11.792;2022-07-22T09:01:06;14.97;;;13.73;;
2656;SDS011;1338;48.176;11.792;2022-07-22T09:03:45;14.67;;;13.47;;
2656;SDS011;1338;48.176;11.792;2022-07-22T09:06:18;13.67;;;12.57;;
2656;SDS011;1338;48.176;11.792;2022-07-22T09:08:54;14.20;;;13.03;;
2656;SDS011;1338;48.176;11.792;2022-07-22T09:11:41;13.87;;;12.77;;
2656;SDS011;1338;48.176;11.792;2022-07-22T09:14:44;14.13;;;13.10;;
2656;SDS011;1338;48.176;11.792;2022-07-22T09:17:33;14.03;;;12.67;;
2656;SDS011;1338;48.176;11.792;2022-07-22T09:20:29;13.30;;;12.00;;
2656;SDS011;1338;48.176;11.792;2022-07-22T09:23:18;13.20;;;12.10;;
2656;SDS011;1338;48.176;11.792;2022-07-22T09:25:49;13.00;;;12.00;;
2656;SDS011;1338;48.176;11.792;2022-07-22T09:28:19;12.33;;;11.43;;
2656;SDS011;1338;48.176;11.792;2022-07-22T09:31:22;13.30;;;12.23;;
2656;SDS011;1338;48.176;11.792;2022-07-22T09:34:01;13.13;;;12.10;;
2656;SDS011;1338;48.176;11.792;2022-07-22T09:36:30;12.67;;;11.73;;
2656;SDS011;1338;48.176;11.792;2022-07-22T09:39:00;12.60;;;11.60;;
2656;SDS011;1338;48.176;11.792;2022-07-22T09:41:28;12.73;;;11.73;;
2656;SDS011;1338;48.176;11.792;2022-07-22T09:43:57;12.60;;;11.60;;
2656;SDS011;1338;48.176;11.792;2022-07-22T09:46:46;12.70;;;11.50;;
2656;SDS011;1338;48.176;11.792;2022-07-22T09:49:15;12.50;;;11.50;;
2656;SDS011;1338;48.176;11.792;2022-07-22T09:52:16;12.63;;;11.60;;
2656;SDS011;1338;48.176;11.792;2022-07-22T09:55:14;12.10;;;11.20;;
2656;SDS011;1338;48.176;11.792;2022-07-22T09:57:45;11.40;;;10.60;;
2656;SDS011;1338;48.176;11.792;2022-07-22T10:00:14;12.27;;;11.17;;
2656;SDS011;1338;48.176;11.792;2022-07-22T10:02:52;12.00;;;11.00;;
2656;SDS011;1338;48.176;11.792;2022-07-22T10:05:22;11.50;;;10.70;;
2656;SDS011;1338;48.176;11.792;2022-07-22T10:07:53;13.10;;;12.00;;
2656;SDS011;1338;48.176;11.792;2022-07-22T10:10:25;11.80;;;10.73;;
2656;SDS011;1338;48.176;11.792;2022-07-22T10:12:55;11.53;;;10.43;;
2656;SDS011;1338;48.176;11.792;2022-07-22T10:15:25;11.23;;;10.33;;
2656;SDS011;1338;48.176;11.792;2022-07-22T10:18:02;11.50;;;10.50;;
2656;SDS011;1338;48.176;11.792;2022-07-22T10:20:35;11.60;;;10.80;;
2656;SDS011;1338;48.176;11.792;2022-07-22T10:23:04;10.60;;;9.90;;
2656;SDS011;1338;48.176;11.792;2022-07-22T10:25:51;11.13;;;10.17;;
2656;SDS011;1338;48.176;11.792;2022-07-22T10:28:22;10.70;;;9.90;;
2656;SDS011;1338;48.176;11.792;2022-07-22T10:30:52;10.50;;;9.70;;
2656;SDS011;1338;48.176;11.792;2022-07-22T10:33:21;11.37;;;10.50;;
2656;SDS011;1338;48.176;11.792;2022-07-22T10:35:57;12.30;;;11.30;;
2656;SDS011;1338;48.176;11.792;2022-07-22T10:38:28;12.23;;;11.17;;
2656;SDS011;1338;48.176;11.792;2022-07-22T10:41:00;11.17;;;10.23;;
2656;SDS011;1338;48.176;11.792;2022-07-22T10:43:29;11.57;;;10.77;;
2656;SDS011;1338;48.176;11.792;2022-07-22T10:45:59;11.60;;;10.67;;
2656;SDS011;1338;48.176;11.792;2022-07-22T10:48:43;12.00;;;11.00;;
2656;SDS011;1338;48.176;11.792;2022-07-22T10:51:14;11.90;;;10.97;;
2656;SDS011;1338;48.176;11.792;2022-07-22T10:53:45;13.20;;;12.10;;
2656;SDS011;1338;48.176;11.792;2022-07-22T10:56:17;11.07;;;10.27;;
2656;SDS011;1338;48.176;11.792;2022-07-22T10:58:50;11.67;;;10.87;;
2656;SDS011;1338;48.176;11.792;2022-07-22T11:01:24;11.50;;;10.70;;
2656;SDS011;1338;48.176;11.792;2022-07-22T11:03:55;11.93;;;11.00;;
2656;SDS011;1338;48.176;11.792;2022-07-22T11:06:42;11.93;;;11.00;;
2656;SDS011;1338;48.176;11.792;2022-07-22T11:09:11;11.27;;;10.47;;
2656;SDS011;1338;48.176;11.792;2022-07-22T11:11:42;12.10;;;11.20;;
2656;SDS011;1338;48.176;11.792;2022-07-22T11:14:14;12.27;;;11.37;;
2656;SDS011;1338;48.176;11.792;2022-07-22T11:16:44;12.03;;;11.03;;
2656;SDS011;1338;48.176;11.792;2022-07-22T11:19:14;11.00;;;10.20;;
2656;SDS011;1338;48.176;11.792;2022-07-22T11:21:48;12.10;;;11.10;;
2656;SDS011;1338;48.176;11.792;2022-07-22T11:24:19;12.37;;;11.37;;
2656;SDS011;1338;48.176;11.792;2022-07-22T11:26:50;12.17;;;11.07;;
2656;SDS011;1338;48.176;11.792;2022-07-22T11:29:24;12.87;;;11.90;;
2656;SDS011;1338;48.176;11.792;2022-07-22T11:31:53;11.93;;;11.10;;
2656;SDS011;1338;48.176;11.792;2022-07-22T11:34:23;11.80;;;10.90;;
2656;SDS011;1338;48.176;11.792;2022-07-22T11:36:51;12.17;;;11.33;;
2656;SDS011;1338;48.176;11.792;2022-07-22T11:39:21;11.70;;;10.93;;
2656;SDS011;1338;48.176;11.792;2022-07-22T11:41:52;13.13;;;12.23;;
2656;SDS011;1338;48.176;11.792;2022-07-22T11:44:22;12.73;;;11.77;;
2656;SDS011;1338;48.176;11.792;2022-07-22T11:46:52;15.53;;;14.27;;
2656;SDS011;1338;48.176;11.792;2022-07-22T11:49:25;14.60;;;13.50;;
2656;SDS011;1338;48.176;11.792;2022-07-22T11:51:55;12.77;;;11.80;;
2656;SDS011;1338;48.176;11.792;2022-07-22T11:54:23;13.30;;;12.40;;
2656;SDS011;1338;48.176;11.792;2022-07-22T11:56:53;12.43;;;11.53;;
2656;SDS011;1338;48.176;11.792;2022-07-22T11:59:23;13.30;;;12.13;;
2656;SDS011;1338;48.176;11.792;2022-07-22T12:01:51;13.93;;;12.93;;
2656;SDS011;1338;48.176;11.792;2022-07-22T12:04:21;13.67;;;12.50;;
2656;SDS011;1338;48.176;11.792;2022-07-22T12:06:51;13.00;;;12.00;;
2656;SDS011;1338;48.176;11.792;2022-07-22T12:09:22;12.87;;;11.97;;
2656;SDS011;1338;48.176;11.792;2022-07-22T12:11:54;13.50;;;12.40;;
2656;SDS011;1338;48.176;11.792;2022-07-22T12:14:25;13.87;;;12.87;;
2656;SDS011;1338;48.176;11.792;2022-07-22T12:16:55;13.73;;;12.70;;
2656;SDS011;1338;48.176;11.792;2022-07-22T12:19:25;14.47;;;13.37;;
2656;SDS011;1338;48.176;11.792;2022-07-22T12:21:57;13.80;;;12.70;;
2656;SDS011;1338;48.176;11.792;2022-07-22T12:24:27;15.10;;;13.90;;
2656;SDS011;1338;48.176;11.792;2022-07-22T12:26:59;13.47;;;12.30;;
2656;SDS011;1338;48.176;11.792;2022-07-22T12:29:29;13.10;;;12.10;;
2656;SDS011;1338;48.176;11.792;2022-07-22T12:32:09;13.50;;;12.50;;
2656;SDS011;1338;48.176;11.792;2022-07-22T12:34:39;14.77;;;13.43;;
2656;SDS011;1338;48.176;11.792;2022-07-22T12:37:14;14.03;;;13.03;;
2656;SDS011;1338;48.176;11.792;2022-07-22T12:39:54;13.63;;;12.50;;
2656;SDS011;1338;48.176;11.792;2022-07-22T12:42:24;13.20;;;12.10;;
2656;SDS011;1338;48.176;11.792;2022-07-22T12:44:58;12.40;;;11.50;;
2656;SDS011;1338;48.176;11.792;2022-07-22T12:47:38;13.17;;;12.27;;
2656;SDS011;1338;48.176;11.792;2022-07-22T12:50:20;14.70;;;13.37;;
2656;SDS011;1338;48.176;11.792;2022-07-22T12:52:51;13.13;;;12.03;;
2656;SDS011;1338;48.176;11.792;2022-07-22T12:55:41;12.73;;;11.73;;
2656;SDS011;1338;48.176;11.792;2022-07-22T12:58:11;13.40;;;12.43;;
2656;SDS011;1338;48.176;11.792;2022-07-22T13:00:43;13.60;;;12.70;;
2656;SDS011;1338;48.176;11.792;2022-07-22T13:03:13;12.90;;;12.00;;
2656;SDS011;1338;48.176;11.792;2022-07-22T13:05:42;13.37;;;12.40;;
2656;SDS011;1338;48.176;11.792;2022-07-22T13:08:10;12.47;;;11.57;;
2656;SDS011;1338;48.176;11.792;2022-07-22T13:10:38;12.60;;;11.60;;
2656;SDS011;1338;48.176;11.792;2022-07-22T13:13:07;13.30;;;12.30;;
2656;SDS011;1338;48.176;11.792;2022-07-22T13:15:37;12.70;;;11.80;;
2656;SDS011;1338;48.176;11.792;2022-07-22T13:18:06;12.33;;;11.37;;
2656;SDS011;1338;48.176;11.792;2022-07-22T13:20:34;12.70;;;11.70;;
2656;SDS011;1338;48.176;11.792;2022-07-22T13:23:02;12.70;;;11.80;;
2656;SDS011;1338;48.176;11.792;2022-07-22T13:25:31;12.17;;;11.27;;
2656;SDS011;1338;48.176;11.792;2022-07-22T13:27:59;12.77;;;11.77;;
2656;SDS011;1338;48.176;11.792;2022-07-22T13:30:27;12.77;;;11.67;;
2656;SDS011;1338;48.176;11.792;2022-07-22T13:32:58;12.83;;;12.03;;
2656;SDS011;1338;48.176;11.792;2022-07-22T13:35:26;12.40;;;11.60;;
2656;SDS011;1338;48.176;11.792;2022-07-22T13:37:55;13.77;;;12.33;;
2656;SDS011;1338;48.176;11.792;2022-07-22T13:40:24;12.63;;;11.83;;
2656;SDS011;1338;48.176;11.792;2022-07-22T13:42:53;13.00;;;12.00;;
2656;SDS011;1338;48.176;11.792;2022-07-22T13:45:21;13.03;;;12.13;;
2656;SDS011;1338;48.176;11.792;2022-07-22T13:47:50;12.60;;;11.60;;
2656;SDS011;1338;48.176;11.792;2022-07-22T13:50:19;13.43;;;12.43;;
2656;SDS011;1338;48.176;11.792;2022-07-22T13:52:48;13.17;;;11.97;;
2656;SDS011;1338;48.176;11.792;2022-07-22T13:55:16;13.17;;;12.17;;
2656;SDS011;1338;48.176;11.792;2022-07-22T13:57:44;13.67;;;12.67;;
2656;SDS011;1338;48.176;11.792;2022-07-22T14:00:13;13.93;;;12.93;;
2656;SDS011;1338;48.176;11.792;2022-07-22T14:02:42;12.50;;;11.53;;
2656;SDS011;1338;48.176;11.792;2022-07-22T14:05:11;15.37;;;13.20;;
2656;SDS011;1338;48.176;11.792;2022-07-22T14:07:42;12.57;;;11.67;;
2656;SDS011;1338;48.176;11.792;2022-07-22T14:10:11;13.00;;;11.90;;
2656;SDS011;1338;48.176;11.792;2022-07-22T14:12:41;13.27;;;12.27;;
2656;SDS011;1338;48.176;11.792;2022-07-22T14:15:10;13.60;;;12.50;;
2656;SDS011;1338;48.176;11.792;2022-07-22T14:17:41;13.17;;;12.23;;
2656;SDS011;1338;48.176;11.792;2022-07-22T14:20:10;14.50;;;13.40;;
2656;SDS011;1338;48.176;11.792;2022-07-22T14:22:39;12.40;;;11.43;;
2656;SDS011;1338;48.176;11.792;2022-07-22T14:25:09;14.27;;;13.10;;
2656;SDS011;1338;48.176;11.792;2022-07-22T14:27:37;14.30;;;13.07;;
2656;SDS011;1338;48.176;11.792;2022-07-22T14:30:06;13.43;;;12.50;;
2656;SDS011;1338;48.176;11.792;2022-07-22T14:32:34;14.17;;;12.33;;
2656;SDS011;1338;48.176;11.792;2022-07-22T14:35:03;14.30;;;13.10;;
2656;SDS011;1338;48.176;11.792;2022-07-22T14:37:32;14.33;;;13.20;;
2656;SDS011;1338;48.176;11.792;2022-07-22T14:40:00;14.63;;;13.63;;
2656;SDS011;1338;48.176;11.792;2022-07-22T14:42:30;15.03;;;13.93;;
2656;SDS011;1338;48.176;11.792;2022-07-22T14:44:58;13.67;;;12.77;;
2656;SDS011;1338;48.176;11.792;2022-07-22T14:47:27;14.60;;;13.50;;
2656;SDS011;1338;48.176;11.792;2022-07-22T14:49:55;13.87;;;12.77;;
2656;SDS011;1338;48.176;11.792;2022-07-22T14:52:23;13.70;;;12.70;;
2656;SDS011;1338;48.176;11.792;2022-07-22T14:54:51;13.30;;;12.30;;
2656;SDS011;1338;48.176;11.792;2022-07-22T14:57:20;13.07;;;12.17;;
2656;SDS011;1338;48.176;11.792;2022-07-22T14:59:49;13.50;;;12.40;;
2656;SDS011;1338;48.176;11.792;2022-07-22T15:02:18;14.00;;;12.90;;